Time;durP1;ratioP1;P1;durP2;ratioP2;P2;SDS_P1;SDS_P2;PMS_P1;PMS_P2;Temp;Humidity;BMP_temperature;BMP_pressure;BME280_temperature;BME280_humidity;BME280_pressure;Samples;Min_cycle;Max_cycle;Signal;HPM_P1;HPM_P2
2023/01/05 00:01:26;;;;;;;20.17;3.93;;;;;;;;;;5043619;28;20062;-76
2023/01/05 00:03:55;;;;;;;21.53;4.80;;;;;;;;;;5020426;28;20029;-77
2023/01/05 00:06:21;;;;;;;18.30;3.30;;;;;;;;;;5020761;28;20487;-76
2023/01/05 00:08:49;;;;;;;24.00;4.03;;;;;;;;;;5037052;28;20049;-77
2023/01/05 00:22:30;;;;;;;15.13;3.27;;;;;;;;;;5026887;28;20043;-76
2023/01/05 00:24:56;;;;;;;22.07;3.67;;;11.80;99.90;;;;;;5034332;28;20059;-77
2023/01/05 00:27:21;;;;;;;15.63;3.10;;;11.80;99.90;;;;;;5042135;28;20037;-77
2023/01/05 00:29:47;;;;;;;24.77;3.33;;;11.80;99.90;;;;;;5022345;28;20739;-76
2023/01/05 00:32:14;;;;;;;20.37;4.70;;;11.80;99.90;;;;;;5020670;28;20199;-77
2023/01/05 00:34:40;;;;;;;23.93;4.03;;;11.80;99.90;;;;;;5021809;28;20033;-75
2023/01/05 00:37:06;;;;;;;24.43;3.77;;;;;;;;;;5025157;28;20041;-77
2023/01/05 00:39:32;;;;;;;22.90;3.93;;;;;;;;;;5026982;28;20029;-76
2023/01/05 00:41:58;;;;;;;17.93;3.83;;;11.70;99.90;;;;;;5026130;28;20022;-76
2023/01/05 00:44:26;;;;;;;27.30;5.03;;;;;;;;;;5027084;28;20519;-77
2023/01/05 00:46:53;;;;;;;20.90;4.83;;;;;;;;;;5020841;28;20037;-76
2023/01/05 00:49:19;;;;;;;25.73;4.77;;;;;;;;;;5026279;28;20138;-76
2023/01/05 00:51:44;;;;;;;17.30;3.30;;;11.70;99.90;;;;;;5042183;28;20693;-77
2023/01/05 00:54:12;;;;;;;26.63;4.43;;;;;;;;;;5026628;28;20125;-76
2023/01/05 00:56:38;;;;;;;25.27;3.97;;;;;;;;;;5042139;28;20033;-75
2023/01/05 00:59:04;;;;;;;22.70;3.20;;;;;;;;;;5041518;28;20033;-76
2023/01/05 01:01:30;;;;;;;18.50;3.60;;;;;;;;;;5041867;28;20021;-77
2023/01/05 01:03:56;;;;;;;19.30;3.77;;;;;;;;;;5026298;28;20115;-76
2023/01/05 01:06:23;;;;;;;26.53;5.43;;;;;;;;;;5021519;28;21014;-77
2023/01/05 01:08:49;;;;;;;22.07;3.37;;;;;;;;;;5035271;28;20108;-76
2023/01/05 01:11:17;;;;;;;22.57;3.80;;;;;;;;;;5026082;28;20093;-76
2023/01/05 01:13:44;;;;;;;22.63;3.70;;;;;;;;;;5020842;28;20033;-76
2023/01/05 01:16:12;;;;;;;23.87;4.47;;;;;;;;;;5044558;28;20025;-76
2023/01/05 01:18:38;;;;;;;16.47;3.87;;;11.60;99.90;;;;;;5042116;28;20076;-77
2023/01/05 01:21:04;;;;;;;20.23;3.73;;;;;;;;;;5021082;28;20688;-78
2023/01/05 01:23:30;;;;;;;28.00;4.27;;;;;;;;;;5042313;28;20072;-77
2023/01/05 01:25:56;;;;;;;23.70;4.93;;;;;;;;;;5026707;28;20037;-75
2023/01/05 01:28:23;;;;;;;24.73;6.10;;;;;;;;;;5036632;28;20079;-76
2023/01/05 01:30:49;;;;;;;23.10;4.27;;;;;;;;;;5037501;28;20087;-76
2023/01/05 01:33:15;;;;;;;26.13;5.23;;;;;;;;;;5029985;28;20057;-76
2023/01/05 01:35:41;;;;;;;27.13;5.50;;;;;;;;;;5046940;28;20025;-76
2023/01/05 01:38:07;;;;;;;27.07;5.40;;;;;;;;;;5028101;28;20083;-75
2023/01/05 01:40:42;;;;;;;23.13;3.97;;;;;;;;;;5045661;28;20064;-77
2023/01/05 01:43:16;;;;;;;21.53;3.83;;;;;;;;;;5045209;28;20068;-76
2023/01/05 01:45:42;;;;;;;35.30;5.93;;;;;;;;;;5045990;28;20041;-76
2023/01/05 01:48:15;;;;;;;28.20;5.40;;;;;;;;;;5030402;28;20063;-78
2023/01/05 01:50:47;;;;;;;20.10;4.43;;;;;;;;;;5045365;28;20041;-77
2023/01/05 01:53:20;;;;;;;27.63;5.07;;;;;;;;;;5029409;28;20033;-76
2023/01/05 01:55:46;;;;;;;23.70;4.00;;;;;;;;;;5029746;28;20073;-78
2023/01/05 01:58:16;;;;;;;24.60;4.40;;;11.50;99.90;;;;;;5028765;28;20691;-77
2023/01/05 02:00:42;;;;;;;24.87;4.57;;;;;;;;;;5045683;28;20493;-77
2023/01/05 02:03:08;;;;;;;25.77;4.77;;;;;;;;;;5022900;28;20037;-75
2023/01/05 02:05:36;;;;;;;22.33;4.57;;;;;;;;;;5029443;28;20029;-77
2023/01/05 02:08:03;;;;;;;29.50;5.00;;;11.50;99.90;;;;;;5021206;28;20030;-77
2023/01/05 02:10:50;;;;;;;25.40;4.73;;;11.50;99.90;;;;;;5039527;28;20164;-76
2023/01/05 02:13:43;;;;;;;23.63;5.70;;;11.50;99.90;;;;;;5046682;28;20040;-77
2023/01/05 02:16:32;;;;;;;26.92;4.07;;;11.40;99.90;;;;;;5039228;28;20129;-76
2023/01/05 02:19:19;;;;;;;22.70;4.73;;;11.40;99.90;;;;;;5031916;28;20163;-76
2023/01/05 02:21:54;;;;;;;28.30;4.53;;;;;;;;;;5045209;28;20029;-77
2023/01/05 02:24:33;;;;;;;27.67;4.47;;;;;;;;;;5037947;28;20457;-77
2023/01/05 02:27:13;;;;;;;29.53;5.10;;;11.40;99.90;;;;;;5028891;28;20695;-77
2023/01/05 02:30:22;;;;;;;21.63;3.90;;;11.50;99.90;;;;;;5045227;28;20041;-77
2023/01/05 02:33:01;;;;;;;28.43;4.27;;;11.30;99.90;;;;;;4992678;28;20041;-76
2023/01/05 02:35:42;;;;;;;24.07;4.43;;;;;;;;;;5023559;28;20037;-76
2023/01/05 02:38:19;;;;;;;24.73;4.30;;;;;;;;;;5038963;28;20168;-77
2023/01/05 02:40:48;;;;;;;30.47;5.20;;;;;;;;;;5043805;28;20454;-76
2023/01/05 02:43:15;;;;;;;23.63;3.80;;;;;;;;;;5036252;28;21861;-77
2023/01/05 02:45:41;;;;;;;26.57;4.60;;;;;;;;;;5020261;28;20122;-76
2023/01/05 02:48:06;;;;;;;22.43;4.73;;;11.10;99.90;;;;;;5028658;28;20057;-75
2023/01/05 02:50:59;;;;;;;29.80;4.77;;;11.10;99.90;;;;;;5030840;28;20127;-77
2023/01/05 02:53:25;;;;;;;;;;;;;;;;;;5046807;28;20025;-76
2023/01/05 02:55:51;;;;;;;26.60;4.53;;;;;;;;;;5044915;28;19940;-77
2023/01/05 02:58:21;;;;;;;27.13;4.63;;;;;;;;;;5043875;28;20064;-76
2023/01/05 03:00:53;;;;;;;26.70;4.27;;;;;;;;;;5043872;28;20398;-76
2023/01/05 03:03:26;;;;;;;18.60;3.92;;;;;;;;;;5023963;28;20021;-76
2023/01/05 03:06:01;;;;;;;33.40;5.57;;;;;;;;;;5028175;28;20029;-77
2023/01/05 03:08:30;;;;;;;27.17;4.90;;;;;;;;;;5028742;28;20083;-77
2023/01/05 03:13:53;;;;;;;25.88;4.97;;;;;;;;;;5028726;28;20049;-77
2023/01/05 03:16:22;;;;;;;24.53;4.87;;;;;;;;;;5043683;28;20359;-75
2023/01/05 03:35:31;;;;;;;28.13;4.40;;;;;;;;;;5030881;28;20986;-76
2023/01/05 03:38:00;;;;;;;25.20;4.93;;;;;;;;;;5036442;28;20030;-77
2023/01/05 03:40:33;;;;;;;43.77;7.03;;;;;;;;;;5036556;28;20045;-76
2023/01/05 03:43:00;;;;;;;34.57;4.90;;;;;;;;;;5036807;28;20117;-76
2023/01/05 03:45:31;;;;;;;32.17;5.20;;;;;;;;;;5031249;28;20033;-77
2023/01/05 03:47:57;;;;;;;28.43;4.73;;;;;;;;;;5043422;28;20120;-75
2023/01/05 03:50:22;;;;;;;21.90;4.07;;;11.10;99.90;;;;;;5040071;28;20132;-76
2023/01/05 03:52:48;;;;;;;26.17;4.60;;;;;;;;;;5026891;28;20033;-76
2023/01/05 03:55:17;;;;;;;23.53;4.60;;;;;;;;;;5026379;28;20115;-76
2023/01/05 03:57:42;;;;;;;27.67;5.03;;;11.20;99.90;;;;;;5034388;28;20104;-76
2023/01/05 04:00:09;;;;;;;25.60;5.27;;;;;;;;;;5026081;28;20426;-76
2023/01/05 04:02:34;;;;;;;35.33;6.03;;;11.30;99.90;;;;;;5036578;28;20130;-77
2023/01/05 04:05:00;;;;;;;29.93;4.83;;;11.20;99.90;;;;;;5025912;28;20030;-76
2023/01/05 04:07:25;;;;;;;25.33;4.27;;;11.30;99.90;;;;;;5027715;28;20033;-78
2023/01/05 04:09:51;;;;;;;32.87;5.87;;;;;;;;;;5021252;28;20026;-77
2023/01/05 04:12:17;;;;;;;32.50;5.47;;;;;;;;;;5022314;28;20132;-76
2023/01/05 04:14:46;;;;;;;25.03;4.87;;;;;;;;;;5042972;28;20063;-75
2023/01/05 04:17:26;;;;;;;22.03;3.57;;;11.30;99.90;;;;;;5034878;28;20034;-78
2023/01/05 04:19:52;;;;;;;31.53;5.67;;;11.20;99.90;;;;;;5038357;28;20060;-75
2023/01/05 04:22:18;;;;;;;26.67;4.70;;;11.20;99.90;;;;;;5022126;28;20343;-77
2023/01/05 04:24:44;;;;;;;26.13;5.63;;;;;;;;;;5027842;28;20030;-75
2023/01/05 04:27:10;;;;;;;35.77;5.37;;;;;;;;;;5046095;28;20179;-76
2023/01/05 04:29:35;;;;;;;21.63;4.60;;;11.20;99.90;;;;;;5043680;28;20037;-76
2023/01/05 04:32:01;;;;;;;30.37;5.63;;;;;;;;;;5025766;28;20040;-77
2023/01/05 04:34:27;;;;;;;40.40;6.53;;;;;;;;;;5022914;28;20033;-77
2023/01/05 04:36:53;;;;;;;30.73;4.70;;;;;;;;;;5024228;28;21171;-76
2023/01/05 04:39:22;;;;;;;25.80;4.40;;;;;;;;;;5044991;28;20589;-75
2023/01/05 04:41:49;;;;;;;26.50;6.23;;;;;;;;;;5035400;28;20048;-77
2023/01/05 04:44:15;;;;;;;29.97;5.57;;;;;;;;;;5035531;28;20029;-77
2023/01/05 04:46:41;;;;;;;28.00;4.53;;;;;;;;;;5036692;28;20045;-76
2023/01/05 04:49:08;;;;;;;31.97;5.30;;;;;;;;;;5027016;28;20033;-76
2023/01/05 04:51:34;;;;;;;29.77;4.77;;;;;;;;;;5026633;28;20469;-78
2023/01/05 04:54:03;;;;;;;23.60;4.90;;;;;;;;;;5027079;28;20040;-75
2023/01/05 04:56:30;;;;;;;25.10;5.60;;;11.00;99.90;;;;;;5036243;28;20021;-77
2023/01/05 04:58:58;;;;;;;32.17;5.67;;;10.90;99.90;;;;;;5042450;28;20080;-75
2023/01/05 05:01:25;;;;;;;22.00;3.77;;;10.90;99.90;;;;;;5042185;28;20033;-76
2023/01/05 05:03:51;;;;;;;34.40;4.97;;;10.60;99.90;;;;;;5022548;28;20025;-76
2023/01/05 05:06:17;;;;;;;44.23;6.23;;;;;;;;;;5041916;28;20021;-76
2023/01/05 05:08:43;;;;;;;39.13;5.63;;;;;;;;;;5042884;28;20120;-76
2023/01/05 05:11:08;;;;;;;34.67;5.80;;;10.30;99.90;;;;;;5021234;28;20128;-76
2023/01/05 05:13:34;;;;;;;39.57;5.33;;;10.20;99.90;;;;;;5026857;28;20136;-76
2023/01/05 05:16:00;;;;;;;39.20;6.33;;;10.20;99.90;;;;;;5021412;28;20056;-77
2023/01/05 05:18:25;;;;;;;29.93;4.47;;;10.20;99.90;;;;;;5026244;28;20438;-75
2023/01/05 05:20:52;;;;;;;36.60;5.73;;;10.20;99.90;;;;;;5026747;28;20036;-77
2023/01/05 05:23:20;;;;;;;40.07;8.00;;;10.20;99.90;;;;;;5022971;28;20473;-76
2023/01/05 05:25:50;;;;;;;42.20;6.80;;;10.20;99.90;;;;;;5027055;28;20486;-76
2023/01/05 05:28:21;;;;;;;35.83;6.17;;;10.20;99.90;;;;;;5026474;28;20051;-77
2023/01/05 05:30:48;;;;;;;33.03;6.13;;;10.20;99.90;;;;;;5022074;28;20453;-76
2023/01/05 05:33:13;;;;;;;39.00;7.27;;;10.20;99.90;;;;;;5042961;28;20052;-76
2023/01/05 05:35:39;;;;;;;27.37;4.70;;;10.20;99.90;;;;;;5026723;28;20650;-76
2023/01/05 05:38:05;;;;;;;42.03;5.80;;;10.30;99.90;;;;;;5024757;28;20046;-76
2023/01/05 05:40:30;;;;;;;35.27;5.63;;;10.40;99.90;;;;;;5022749;28;20037;-76
2023/01/05 05:42:56;;;;;;;32.30;5.50;;;;;;;;;;5029364;28;20041;-76
2023/01/05 05:45:22;;;;;;;40.20;5.90;;;10.50;99.90;;;;;;5027427;28;20033;-78
2023/01/05 05:47:47;;;;;;;34.43;5.83;;;10.50;99.90;;;;;;5027817;28;20036;-76
2023/01/05 05:50:15;;;;;;;43.77;5.80;;;10.50;99.90;;;;;;5028540;28;20037;-77
2023/01/05 05:52:41;;;;;;;38.80;6.20;;;;;;;;;;5025047;28;20055;-77
2023/01/05 05:55:10;;;;;;;31.37;5.20;;;10.50;99.90;;;;;;5019375;28;20124;-77
2023/01/05 05:57:35;;;;;;;30.47;4.90;;;10.50;99.90;;;;;;5021877;28;20072;-76
2023/01/05 06:00:01;;;;;;;37.30;5.47;;;10.60;99.90;;;;;;5044770;28;20453;-77
2023/01/05 06:02:27;;;;;;;30.10;6.30;;;10.60;99.90;;;;;;5026574;28;20040;-76
2023/01/05 06:04:55;;;;;;;40.37;7.07;;;10.60;99.90;;;;;;5030305;28;20079;-76
2023/01/05 06:07:23;;;;;;;27.47;5.03;;;;;;;;;;5021989;28;20880;-75
2023/01/05 06:09:48;;;;;;;35.77;6.43;;;10.60;99.90;;;;;;5027144;28;20033;-76
2023/01/05 06:12:14;;;;;;;43.37;6.90;;;10.60;99.90;;;;;;5027748;28;20051;-77
2023/01/05 06:14:39;;;;;;;30.63;5.43;;;10.60;99.90;;;;;;5021470;28;20414;-75
2023/01/05 06:17:05;;;;;;;29.77;4.83;;;;;;;;;;5021261;28;20045;-75
2023/01/05 06:19:31;;;;;;;29.67;4.87;;;;;;;;;;5030922;28;20083;-76
2023/01/05 06:21:57;;;;;;;31.63;5.17;;;;;;;;;;5046306;28;20476;-77
2023/01/05 06:24:23;;;;;;;34.00;5.20;;;;;;;;;;5030622;28;20094;-77
2023/01/05 06:26:49;;;;;;;29.73;5.60;;;10.70;99.90;;;;;;5024497;28;20033;-77
2023/01/05 06:29:14;;;;;;;35.67;5.47;;;10.80;99.90;;;;;;5046168;28;20047;-77
2023/01/05 06:31:40;;;;;;;47.53;6.87;;;;;;;;;;5039430;28;20366;-78
2023/01/05 06:34:06;;;;;;;28.93;6.30;;;10.80;99.90;;;;;;5022389;28;20095;-77
2023/01/05 06:36:32;;;;;;;33.63;5.50;;;;;;;;;;5029497;28;20033;-76
2023/01/05 06:38:57;;;;;;;31.50;5.30;;;10.90;99.90;;;;;;5041258;28;20090;-78
2023/01/05 06:41:23;;;;;;;28.93;6.20;;;10.90;99.90;;;;;;5024567;28;20040;-77
2023/01/05 06:43:51;;;;;;;27.60;5.27;;;;;;;;;;5047808;28;20086;-76
2023/01/05 06:46:17;;;;;;;32.83;5.67;;;10.90;99.90;;;;;;5030406;28;20026;-77
2023/01/05 06:48:43;;;;;;;38.83;5.33;;;;;;;;;;5032931;28;20038;-76
2023/01/05 06:51:11;;;;;;;31.97;4.80;;;;;;;;;;5024011;28;20053;-75
2023/01/05 06:53:37;;;;;;;36.77;6.53;;;;;;;;;;5020759;28;20037;-78
2023/01/05 06:56:03;;;;;;;28.93;5.60;;;;;;;;;;5021681;28;20386;-76
2023/01/05 06:58:29;;;;;;;33.37;6.10;;;;;;;;;;5044693;28;20040;-77
2023/01/05 07:00:55;;;;;;;33.80;5.43;;;;;;;;;;5028832;28;20339;-76
2023/01/05 07:03:23;;;;;;;38.60;6.17;;;;;;;;;;5023912;28;20061;-77
2023/01/05 07:05:48;;;;;;;31.70;6.20;;;11.00;99.90;;;;;;5044095;28;20025;-77
2023/01/05 07:08:14;;;;;;;39.90;6.40;;;11.00;99.90;;;;;;5028901;28;20044;-76
2023/01/05 07:10:40;;;;;;;31.23;5.17;;;10.90;99.90;;;;;;5024056;28;20457;-78
2023/01/05 07:13:05;;;;;;;28.93;6.17;;;11.00;99.90;;;;;;5026490;28;20033;-77
2023/01/05 07:15:35;;;;;;;36.80;5.87;;;10.90;99.90;;;;;;5028182;28;20072;-78
2023/01/05 07:18:03;;;;;;;34.77;6.50;;;10.90;99.90;;;;;;5044448;28;20036;-76
2023/01/05 07:20:31;;;;;;;33.77;6.03;;;;;;;;;;5030173;28;20064;-78
2023/01/05 07:22:57;;;;;;;38.50;6.97;;;;;;;;;;5029374;28;20101;-77
2023/01/05 07:25:23;;;;;;;28.27;5.87;;;;;;;;;;5031683;28;20104;-76
2023/01/05 07:27:51;;;;;;;34.33;6.23;;;;;;;;;;5045765;28;20025;-75
2023/01/05 07:30:17;;;;;;;32.87;5.40;;;;;;;;;;5025262;28;20499;-76
2023/01/05 07:32:43;;;;;;;33.40;5.47;;;;;;;;;;5038892;28;20048;-78
2023/01/05 07:35:09;;;;;;;29.87;5.73;;;;;;;;;;5029507;28;20059;-78
2023/01/05 07:37:35;;;;;;;27.83;4.53;;;;;;;;;;5045470;28;20521;-77
2023/01/05 07:40:01;;;;;;;35.30;6.27;;;;;;;;;;5039072;28;20042;-77
2023/01/05 07:42:29;;;;;;;27.17;5.17;;;;;;;;;;5029372;28;20638;-77
2023/01/05 07:44:57;;;;;;;34.37;5.87;;;;;;;;;;5021121;28;20021;-77
2023/01/05 07:47:23;;;;;;;31.20;5.80;;;;;;;;;;5023995;28;20036;-77
2023/01/05 07:49:52;;;;;;;40.23;6.57;;;;;;;;;;5045215;28;20033;-78
2023/01/05 07:52:18;;;;;;;36.00;6.40;;;;;;;;;;5038831;28;20029;-79
2023/01/05 07:54:45;;;;;;;36.27;7.80;;;;;;;;;;5028862;28;20480;-77
2023/01/05 07:57:10;;;;;;;31.40;6.10;;;;;;;;;;5038850;28;20124;-77
2023/01/05 07:59:36;;;;;;;35.37;6.93;;;;;;;;;;5043952;28;20021;-78
2023/01/05 08:02:02;;;;;;;44.53;6.90;;;;;;;;;;5024432;28;20025;-76
2023/01/05 08:04:28;;;;;;;49.37;6.63;;;;;;;;;;5024936;28;20041;-77
2023/01/05 08:06:55;;;;;;;36.07;6.13;;;;;;;;;;5043869;28;20037;-77
2023/01/05 08:12:08;;;;;;;51.60;5.80;;;;;;;;;;5028669;28;20119;-77
2023/01/05 08:14:34;;;;;;;25.67;4.90;;;;;;;;;;5028159;28;20050;-76
2023/01/05 08:17:00;;;;;;;42.10;6.57;;;;;;;;;;5023909;28;20047;-76
2023/01/05 08:19:26;;;;;;;31.13;5.33;;;;;;;;;;5043377;28;20037;-76
2023/01/05 08:21:52;;;;;;;37.97;5.77;;;;;;;;;;5027835;28;20413;-78
2023/01/05 08:24:18;;;;;;;35.53;5.57;;;;;;;;;;5020055;28;20057;-77
2023/01/05 08:26:44;;;;;;;36.63;5.77;;;;;;;;;;5022029;28;20041;-77
2023/01/05 08:29:12;;;;;;;38.77;6.00;;;;;;;;;;5026150;28;20036;-76
2023/01/05 08:31:38;;;;;;;46.63;8.00;;;;;;;;;;5018356;28;20034;-78
2023/01/05 08:34:07;;;;;;;40.23;6.97;;;;;;;;;;5038876;28;20033;-78
2023/01/05 08:36:33;;;;;;;41.07;6.67;;;;;;;;;;5039676;28;20037;-76
2023/01/05 08:39:00;;;;;;;42.90;7.83;;;;;;;;;;5044444;28;20025;-76
2023/01/05 08:41:36;;;;;;;45.07;6.80;;;;;;;;;;5024922;28;20025;-78
2023/01/05 08:44:07;;;;;;;40.77;7.83;;;;;;;;;;5037585;28;20477;-78
2023/01/05 08:46:36;;;;;;;36.00;6.90;;;;;;;;;;5048138;28;20040;-76
2023/01/05 08:49:04;;;;;;;43.20;8.53;;;;;;;;;;5044052;28;20041;-76
2023/01/05 08:51:30;;;;;;;39.50;7.00;;;;;;;;;;5021719;28;20033;-78
2023/01/05 08:53:56;;;;;;;45.27;8.03;;;;;;;;;;5024605;28;20021;-78
2023/01/05 08:56:24;;;;;;;48.43;7.73;;;;;;;;;;5032837;28;20033;-76
2023/01/05 08:58:50;;;;;;;37.63;7.23;;;;;;;;;;5024930;28;20052;-77
2023/01/05 09:01:17;;;;;;;41.37;6.87;;;;;;;;;;5041179;28;20120;-76
2023/01/05 09:03:46;;;;;;;42.60;7.13;;;;;;;;;;5026976;28;20044;-77
2023/01/05 09:06:15;;;;;;;52.33;6.27;;;;;;;;;;5028147;28;20036;-77
2023/01/05 09:08:41;;;;;;;32.53;5.80;;;;;;;;;;5043285;28;20033;-78
2023/01/05 09:11:08;;;;;;;38.53;6.17;;;;;;;;;;5035623;28;20567;-76
2023/01/05 09:13:36;;;;;;;32.40;5.07;;;;;;;;;;5043526;28;20092;-77
2023/01/05 09:16:06;;;;;;;33.07;6.37;;;;;;;;;;5021556;28;20116;-77
2023/01/05 09:18:32;;;;;;;40.60;5.60;;;;;;;;;;5035284;28;20052;-77
2023/01/05 09:20:58;;;;;;;30.60;6.80;;;;;;;;;;5020810;28;20535;-76
2023/01/05 09:23:24;;;;;;;38.03;6.17;;;;;;;;;;5027066;28;20029;-76
2023/01/05 09:25:49;;;;;;;49.70;6.97;;;11.30;99.90;;;;;;5025661;28;20037;-79
2023/01/05 09:28:15;;;;;;;34.23;6.80;;;11.30;99.90;;;;;;5024518;28;20037;-75
2023/01/05 09:30:40;;;;;;;39.53;5.90;;;11.40;99.90;;;;;;5021360;28;20049;-78
2023/01/05 09:33:06;;;;;;;42.83;7.90;;;11.40;99.90;;;;;;5021051;28;20037;-75
2023/01/05 09:35:31;;;;;;;41.23;6.70;;;11.40;99.90;;;;;;5021783;28;20037;-79
2023/01/05 09:37:59;;;;;;;37.23;7.13;;;11.40;99.90;;;;;;5026602;28;20116;-77
2023/01/05 09:40:26;;;;;;;34.20;6.33;;;;;;;;;;5025977;28;20025;-77
2023/01/05 09:42:56;;;;;;;40.57;6.40;;;11.40;99.90;;;;;;5045236;28;20026;-78
2023/01/05 09:45:26;;;;;;;33.80;7.40;;;;;;;;;;5026733;28;20029;-78
2023/01/05 09:47:53;;;;;;;35.50;6.10;;;;;;;;;;5028641;28;20048;-78
2023/01/05 09:50:22;;;;;;;43.40;7.07;;;11.40;99.90;;;;;;5043710;28;20045;-77
2023/01/05 09:52:52;;;;;;;40.53;6.60;;;11.50;99.90;;;;;;5035672;28;20037;-76
2023/01/05 09:55:20;;;;;;;39.13;8.03;;;11.50;99.90;;;;;;5029023;28;20048;-77
2023/01/05 09:58:06;;;;;;;33.97;6.30;;;11.50;99.90;;;;;;5022970;28;20123;-76
2023/01/05 10:00:32;;;;;;;35.33;6.07;;;11.60;99.90;;;;;;5038176;28;20037;-77
2023/01/05 10:03:00;;;;;;;43.90;6.07;;;;;;;;;;5030830;28;20102;-76
2023/01/05 10:05:27;;;;;;;44.50;7.70;;;;;;;;;;5038020;28;20124;-77
2023/01/05 10:07:56;;;;;;;39.37;6.67;;;;;;;;;;5038476;28;20477;-78
2023/01/05 10:10:26;;;;;;;42.67;6.57;;;;;;;;;;5038169;28;20040;-76
2023/01/05 10:13:02;;;;;;;43.90;7.67;;;11.40;99.90;;;;;;5041484;28;20042;-78
2023/01/05 10:15:50;;;;;;;39.50;6.90;;;11.40;99.90;;;;;;5030142;28;20033;-78
2023/01/05 10:18:21;;;;;;;39.63;6.47;;;11.40;99.90;;;;;;5046362;28;20084;-78
2023/01/05 10:20:53;;;;;;;39.75;6.15;;;11.40;99.90;;;;;;5024340;28;20030;-76
2023/01/05 10:23:36;;;;;;;40.17;7.03;;;11.40;99.90;;;;;;5038208;28;20029;-78
2023/01/05 10:26:16;;;;;;;42.67;7.27;;;11.40;99.90;;;;;;5047092;28;20025;-76
2023/01/05 10:28:50;;;;;;;37.87;7.10;;;;;;;;;;5026462;28;20034;-77
2023/01/05 10:31:22;;;;;;;36.40;6.97;;;;;;;;;;5045840;28;20053;-78
2023/01/05 10:33:51;;;;;;;27.00;5.83;;;;;;;;;;5031710;28;20026;-77
2023/01/05 10:36:36;;;;;;;40.33;7.07;;;;;;;;;;5030975;28;20040;-76
2023/01/05 10:39:10;;;;;;;42.47;7.47;;;;;;;;;;5045446;28;20037;-77
2023/01/05 10:41:54;;;;;;;34.90;6.83;;;;;;;;;;5022708;28;20040;-75
2023/01/05 10:44:33;;;;;;;44.83;7.40;;;;;;;;;;5024947;28;20037;-76
2023/01/05 10:46:59;;;;;;;36.20;7.80;;;;;;;;;;5029298;28;20056;-78
2023/01/05 10:49:27;;;;;;;38.83;6.80;;;;;;;;;;5023879;28;20044;-78
2023/01/05 10:51:54;;;;;;;34.77;6.13;;;;;;;;;;5024489;28;20034;-78
2023/01/05 10:54:44;;;;;;;47.50;8.67;;;;;;;;;;5048410;28;20771;-78
2023/01/05 10:57:31;;;;;;;27.90;5.73;;;;;;;;;;5025617;28;20036;-76
2023/01/05 11:00:01;;;;;;;37.33;6.50;;;;;;;;;;5043177;28;20055;-76
2023/01/05 11:02:29;;;;;;;33.80;7.27;;;;;;;;;;5030075;28;20022;-78
2023/01/05 11:04:59;;;;;;;48.50;8.13;;;;;;;;;;5028777;28;20038;-77
2023/01/05 11:07:25;;;;;;;38.13;6.17;;;;;;;;;;5023080;28;20041;-77
2023/01/05 11:09:54;;;;;;;29.67;6.40;;;;;;;;;;5030693;28;20037;-78
2023/01/05 11:12:22;;;;;;;27.63;7.30;;;;;;;;;;5039682;28;20434;-78
2023/01/05 11:14:50;;;;;;;35.50;7.00;;;;;;;;;;5046220;28;20025;-77
2023/01/05 11:17:18;;;;;;;34.37;5.77;;;;;;;;;;5048152;28;20168;-75
2023/01/05 11:19:46;;;;;;;43.40;6.40;;;;;;;;;;5025609;28;20361;-77
2023/01/05 11:22:30;;;;;;;31.33;6.30;;;;;;;;;;5028992;28;20684;-77
2023/01/05 11:25:15;;;;;;;31.73;6.00;;;;;;;;;;5028874;28;20037;-77
2023/01/05 11:27:41;;;;;;;38.47;6.83;;;;;;;;;;5045418;28;20029;-75
2023/01/05 11:30:20;;;;;;;37.97;6.03;;;12.00;99.90;;;;;;5029855;28;20029;-77
2023/01/05 11:32:47;;;;;;;31.53;6.13;;;;;;;;;;5028718;28;20042;-76
2023/01/05 11:35:17;;;;;;;30.93;6.23;;;;;;;;;;5038027;28;20029;-77
2023/01/05 11:37:44;;;;;;;33.43;6.30;;;;;;;;;;5021660;28;20033;-76
2023/01/05 11:40:15;;;;;;;31.67;6.23;;;;;;;;;;5024277;28;20033;-77
2023/01/05 11:42:42;;;;;;;36.60;6.23;;;;;;;;;;5025227;28;20034;-77
2023/01/05 11:45:23;;;;;;;29.77;6.17;;;12.00;99.90;;;;;;5029588;28;20087;-76
2023/01/05 11:47:59;;;;;;;38.23;6.03;;;12.00;99.90;;;;;;5028724;28;20037;-76
2023/01/05 11:50:25;;;;;;;26.80;5.63;;;;;;;;;;5029414;28;20595;-76
2023/01/05 11:52:56;;;;;;;29.73;5.70;;;12.00;99.90;;;;;;5038535;28;20033;-75
2023/01/05 11:55:32;;;;;;;30.20;5.77;;;;;;;;;;5026753;28;21577;-77
2023/01/05 11:58:16;;;;;;;25.20;5.07;;;;;;;;;;5030193;28;20029;-75
2023/01/05 12:00:44;;;;;;;29.00;5.70;;;;;;;;;;5042167;28;20029;-76
2023/01/05 12:03:13;;;;;;;30.67;5.73;;;;;;;;;;5038457;28;20029;-76
2023/01/05 12:05:44;;;;;;;31.60;5.97;;;;;;;;;;5044857;28;20029;-76
2023/01/05 12:08:14;;;;;;;32.23;5.03;;;;;;;;;;5023813;28;20048;-76
2023/01/05 12:10:54;;;;;;;32.20;5.27;;;;;;;;;;5029435;28;20446;-76
2023/01/05 12:13:23;;;;;;;31.30;5.80;;;;;;;;;;5022542;28;20040;-76
2023/01/05 12:15:54;;;;;;;31.53;6.43;;;12.40;99.90;;;;;;5028872;28;20095;-77
2023/01/05 12:18:20;;;;;;;27.77;5.20;;;;;;;;;;5044453;28;20038;-77
2023/01/05 12:21:04;;;;;;;27.47;6.07;;;;;;;;;;5044355;28;20171;-75
2023/01/05 12:23:39;;;;;;;26.23;4.73;;;;;;;;;;5023629;28;20056;-76
2023/01/05 12:26:24;;;;;;;24.73;4.67;;;;;;;;;;5038453;28;20033;-76
2023/01/05 12:28:59;;;;;;;13.47;3.73;;;;;;;;;;5043576;28;20952;-76
2023/01/05 12:31:44;;;;;;;25.87;5.70;;;;;;;;;;5021353;28;20454;-77
2023/01/05 12:34:19;;;;;;;30.10;5.53;;;;;;;;;;5023888;28;20033;-77
2023/01/05 12:37:07;;;;;;;33.40;5.47;;;;;;;;;;5043856;28;20484;-77
2023/01/05 12:39:33;;;;;;;24.37;5.17;;;;;;;;;;5021438;28;20025;-77
2023/01/05 12:42:11;;;;;;;24.43;4.40;;;;;;;;;;5024318;28;20082;-76
2023/01/05 12:44:49;;;;;;;26.90;5.03;;;;;;;;;;5043883;28;20033;-76
2023/01/05 12:47:23;;;;;;;30.57;5.83;;;;;;;;;;5038258;28;20178;-76
2023/01/05 12:49:56;;;;;;;27.50;4.93;;;;;;;;;;5034117;28;20037;-76
2023/01/05 12:52:32;;;;;;;24.17;4.43;;;;;;;;;;5033593;28;20484;-76
2023/01/05 12:55:16;;;;;;;22.50;5.33;;;;;;;;;;5020361;28;20037;-77
2023/01/05 12:57:49;;;;;;;24.37;4.67;;;;;;;;;;5022305;28;20120;-78
2023/01/05 13:00:17;;;;;;;31.70;7.60;;;;;;;;;;5036983;28;20030;-78
2023/01/05 13:02:52;;;;;;;25.53;4.90;;;12.60;99.90;;;;;;5042769;28;20037;-75
2023/01/05 13:05:26;;;;;;;31.90;5.77;;;12.60;99.90;;;;;;5021596;28;20633;-77
2023/01/05 13:08:23;;;;;;;34.00;5.30;;;12.50;99.90;;;;;;5021537;28;20068;-77
2023/01/05 13:10:56;;;;;;;36.60;5.73;;;;;;;;;;5042961;28;20033;-78
2023/01/05 13:13:26;;;;;;;32.07;5.23;;;;;;;;;;5045884;28;20101;-78
2023/01/05 13:15:56;;;;;;;38.37;6.50;;;;;;;;;;5019707;28;20476;-78
2023/01/05 13:18:25;;;;;;;30.07;5.57;;;12.40;99.90;;;;;;5041311;28;20037;-78
2023/01/05 13:21:00;;;;;;;24.50;4.97;;;12.50;99.90;;;;;;5026115;28;20026;-76
2023/01/05 13:24:05;;;;;;;29.80;4.83;;;12.40;99.90;;;;;;5028788;28;20036;-76
2023/01/05 13:26:32;;;;;;;22.50;4.83;;;12.40;99.90;;;;;;5022123;28;20044;-75
2023/01/05 13:28:59;;;;;;;33.10;5.87;;;;;;;;;;5032310;28;20037;-77
2023/01/05 13:31:25;;;;;;;26.80;5.10;;;;;;;;;;5047629;28;20072;-77
2023/01/05 13:33:51;;;;;;;28.43;5.07;;;;;;;;;;5026106;28;20072;-78
2023/01/05 13:36:23;;;;;;;25.03;5.00;;;;;;;;;;5030897;28;20103;-76
2023/01/05 13:39:09;;;;;;;25.13;5.38;;;;;;;;;;5023136;28;20033;-75
2023/01/05 13:41:47;;;;;;;29.07;5.10;;;;;;;;;;5045107;28;20037;-77
2023/01/05 13:44:13;;;;;;;22.93;4.63;;;;;;;;;;5044703;28;20031;-76
2023/01/05 13:46:51;;;;;;;23.13;4.37;;;;;;;;;;5022319;28;20033;-77
2023/01/05 13:49:29;;;;;;;26.77;4.87;;;;;;;;;;5028824;28;20092;-77
2023/01/05 13:52:02;;;;;;;28.87;5.67;;;;;;;;;;5022966;28;20039;-76
2023/01/05 13:54:34;;;;;;;30.00;5.70;;;;;;;;;;5021897;28;20105;-78
2023/01/05 13:57:05;;;;;;;27.70;4.97;;;;;;;;;;5044727;28;20042;-79
2023/01/05 13:59:32;;;;;;;29.73;6.77;;;;;;;;;;5019385;28;20146;-77
2023/01/05 14:02:01;;;;;;;23.43;4.30;;;;;;;;;;5044708;28;20362;-77
2023/01/05 14:04:32;;;;;;;26.27;4.77;;;;;;;;;;5045175;28;20026;-78
2023/01/05 14:06:59;;;;;;;25.73;5.67;;;;;;;;;;5040537;28;20033;-79
2023/01/05 14:09:34;;;;;;;23.80;4.80;;;;;;;;;;5026038;28;20033;-77
2023/01/05 14:12:06;;;;;;;32.03;5.87;;;;;;;;;;5045661;28;20103;-77
2023/01/05 14:14:51;;;;;;;35.85;7.50;;;;;;;;;;5031498;28;20056;-78
2023/01/05 14:17:37;;;;;;;33.10;6.40;;;;;;;;;;5028806;28;20036;-78
2023/01/05 14:20:18;;;;;;;37.93;6.83;;;;;;;;;;5020593;28;20053;-78
2023/01/05 14:22:46;;;;;;;29.30;6.30;;;;;;;;;;5036876;28;20099;-76
2023/01/05 14:25:32;;;;;;;33.47;5.90;;;;;;;;;;5029248;28;20025;-77
2023/01/05 14:28:16;;;;;;;35.73;6.30;;;;;;;;;;5039591;28;20669;-76
2023/01/05 14:30:45;;;;;;;31.93;5.47;;;;;;;;;;5035458;28;20034;-75
2023/01/05 14:33:11;;;;;;;40.70;6.30;;;;;;;;;;5022390;28;20025;-76
2023/01/05 14:35:39;;;;;;;44.67;7.90;;;;;;;;;;5023525;28;20033;-77
2023/01/05 14:38:17;;;;;;;38.53;6.30;;;;;;;;;;5028595;28;20037;-76
2023/01/05 14:40:45;;;;;;;37.80;6.33;;;;;;;;;;5038906;28;20026;-78
2023/01/05 14:43:26;;;;;;;47.70;7.83;;;;;;;;;;5045150;28;20025;-77